createdAt,value
2023-10-14T00:00:58.918Z,0.60
2023-10-14T00:03:28.859Z,0.68
2023-10-14T00:05:56.374Z,0.60
2023-10-14T00:08:27.611Z,0.40
2023-10-14T00:10:54.114Z,0.80
2023-10-14T00:13:20.629Z,0.45
2023-10-14T00:15:47.093Z,0.60
2023-10-14T00:18:14.214Z,0.77
2023-10-14T00:20:41.143Z,0.60
2023-10-14T00:23:07.548Z,0.60
2023-10-14T00:25:36.013Z,0.70
2023-10-14T00:28:08.912Z,0.52
2023-10-14T00:30:35.392Z,0.63
2023-10-14T00:33:02.046Z,0.60
2023-10-14T00:35:28.987Z,0.90
2023-10-14T00:37:56.772Z,1.13
2023-10-14T00:40:23.953Z,0.65
2023-10-14T00:42:52.268Z,0.80
2023-10-14T00:45:21.994Z,0.88
2023-10-14T00:47:50.197Z,0.80
2023-10-14T00:50:35.862Z,0.90
2023-10-14T00:53:06.877Z,0.70
2023-10-14T00:55:45.408Z,0.57
2023-10-14T00:58:13.967Z,0.63
2023-10-14T01:00:58.247Z,0.70
2023-10-14T01:03:33.043Z,1.00
2023-10-14T01:06:08.107Z,1.42
2023-10-14T01:08:39.230Z,0.90
2023-10-14T01:11:05.665Z,0.70
2023-10-14T01:13:32.097Z,1.00
2023-10-14T01:16:04.515Z,0.90
2023-10-14T01:18:35.890Z,1.08
2023-10-14T01:21:02.602Z,0.90
2023-10-14T01:23:28.975Z,1.17
2023-10-14T01:25:55.435Z,1.05
2023-10-14T01:28:23.005Z,0.98
2023-10-14T01:31:24.110Z,1.00
2023-10-14T01:33:50.640Z,0.80
2023-10-14T01:36:17.208Z,1.08
2023-10-14T01:38:52.130Z,1.88
2023-10-14T01:41:18.727Z,0.70
2023-10-14T01:43:45.204Z,0.93
2023-10-14T01:46:11.723Z,1.05
2023-10-14T01:48:39.671Z,1.00
2023-10-14T01:51:06.218Z,1.17
2023-10-14T01:53:33.660Z,0.98
2023-10-14T01:56:02.388Z,0.90
2023-10-14T01:58:37.436Z,0.88
2023-10-14T02:01:08.876Z,0.80
2023-10-14T02:03:43.316Z,0.77
2023-10-14T02:06:21.123Z,1.23
2023-10-14T02:08:52.106Z,1.10
2023-10-14T02:11:22.125Z,1.10
2023-10-14T02:13:52.638Z,1.20
2023-10-14T02:16:25.878Z,1.00
2023-10-14T02:19:24.907Z,0.90
2023-10-14T02:21:59.002Z,1.00
2023-10-14T02:24:28.752Z,0.88
2023-10-14T02:26:58.152Z,1.45
2023-10-14T02:29:25.598Z,1.10
2023-10-14T02:34:20.017Z,1.10
2023-10-14T02:36:52.290Z,0.98
2023-10-14T02:39:26.821Z,1.08
2023-10-14T02:42:05.522Z,1.10
2023-10-14T02:44:34.150Z,0.95
2023-10-14T02:47:10.172Z,0.98
2023-10-14T02:49:47.391Z,1.35
2023-10-14T02:52:19.150Z,0.70
2023-10-14T02:54:55.780Z,0.93
2023-10-14T02:57:29.161Z,1.27
2023-10-14T02:59:59.677Z,1.25
2023-10-14T03:02:28.274Z,0.70
2023-10-14T03:05:00.428Z,0.80
2023-10-14T03:07:31.619Z,1.00
2023-10-14T03:10:13.537Z,1.15
2023-10-14T03:12:40.952Z,1.33
2023-10-14T03:15:21.210Z,0.60
2023-10-14T03:17:54.552Z,1.02
2023-10-14T03:20:30.592Z,1.25
2023-10-14T03:23:01.046Z,2.25
2023-10-14T03:25:28.802Z,1.13
2023-10-14T03:28:13.300Z,1.00
2023-10-14T03:30:45.365Z,0.90
2023-10-14T03:33:14.535Z,0.82
2023-10-14T03:35:43.192Z,1.20
2023-10-14T03:38:26.095Z,0.85
2023-10-14T03:41:04.983Z,1.20
2023-10-14T03:43:50.466Z,1.00
2023-10-14T03:46:24.182Z,1.48
2023-10-14T03:48:56.847Z,0.82
2023-10-14T03:51:31.469Z,1.30
2023-10-14T03:53:59.566Z,0.95
2023-10-14T03:56:28.536Z,0.82
2023-10-14T03:58:56.541Z,1.75
2023-10-14T04:01:39.725Z,1.27
2023-10-14T04:04:26.809Z,1.15
2023-10-14T04:07:01.318Z,0.90
2023-10-14T04:09:44.742Z,0.90
2023-10-14T04:12:13.585Z,0.93
2023-10-14T04:14:41.965Z,0.98
2023-10-14T04:17:11.271Z,0.82
2023-10-14T04:19:54.348Z,1.50
2023-10-14T04:22:35.970Z,0.98
2023-10-14T04:25:34.740Z,1.10
2023-10-14T04:28:16.232Z,0.98
2023-10-14T04:30:46.281Z,1.02
2023-10-14T04:33:15.812Z,0.88
2023-10-14T04:35:58.170Z,0.80
2023-10-14T04:38:39.264Z,1.02
2023-10-14T04:41:14.276Z,0.80
2023-10-14T04:43:48.214Z,1.08
2023-10-14T04:46:17.386Z,0.82
2023-10-14T04:48:52.535Z,0.90
2023-10-14T04:51:20.507Z,1.15
2023-10-14T04:53:51.093Z,1.10
2023-10-14T04:56:23.771Z,1.10
2023-10-14T04:58:54.201Z,0.85
2023-10-14T05:01:21.162Z,0.85
2023-10-14T05:03:47.880Z,1.23
2023-10-14T05:06:14.489Z,1.05
2023-10-14T05:08:47.060Z,1.20
2023-10-14T05:11:15.040Z,0.70
2023-10-14T05:13:45.624Z,1.02
2023-10-14T05:16:22.686Z,1.42
2023-10-14T05:19:06.270Z,1.10
2023-10-14T05:21:45.134Z,1.00
2023-10-14T05:24:13.021Z,1.20
2023-10-14T05:26:59.982Z,1.08
2023-10-14T05:29:27.337Z,1.15
2023-10-14T05:31:54.369Z,1.00
2023-10-14T05:34:27.812Z,0.88
2023-10-14T05:36:56.995Z,1.02
2023-10-14T05:39:23.899Z,1.30
2023-10-14T05:41:57.103Z,1.10
2023-10-14T05:44:23.521Z,0.80
2023-10-14T05:46:50.049Z,1.13
2023-10-14T05:49:17.455Z,0.95
2023-10-14T05:54:12.253Z,0.93
2023-10-14T05:56:40.532Z,1.77
2023-10-14T05:59:07.346Z,1.00
2023-10-14T06:01:33.867Z,0.80
2023-10-14T06:04:00.432Z,1.02
2023-10-14T06:06:26.940Z,1.20
2023-10-14T06:08:54.322Z,1.02
2023-10-14T06:13:47.132Z,1.05
2023-10-14T06:16:15.172Z,1.33
2023-10-14T06:18:42.296Z,0.77
2023-10-14T06:21:12.142Z,0.90
2023-10-14T06:23:41.063Z,1.02
2023-10-14T06:26:07.532Z,1.10
2023-10-14T06:28:34.050Z,1.05
2023-10-14T06:31:01.554Z,0.82
2023-10-14T06:33:28.521Z,0.80
2023-10-14T06:35:54.951Z,1.02
2023-10-14T06:38:23.648Z,0.95
2023-10-14T06:40:56.733Z,0.95
2023-10-14T06:43:25.660Z,1.33
2023-10-14T06:45:54.320Z,0.88
2023-10-14T06:48:21.099Z,1.17
2023-10-14T06:50:48.438Z,1.25
2023-10-14T06:53:16.787Z,1.13
2023-10-14T06:55:43.624Z,1.13
2023-10-14T06:58:19.999Z,1.17
2023-10-14T07:00:46.845Z,1.10
2023-10-14T07:03:16.485Z,1.20
2023-10-14T07:05:47.900Z,1.33
2023-10-14T07:08:15.347Z,1.30
2023-10-14T07:13:09.243Z,1.00
2023-10-14T07:15:39.763Z,0.60
2023-10-14T07:18:06.935Z,1.23
2023-10-14T07:20:33.486Z,1.55
2023-10-14T07:23:02.244Z,1.30
2023-10-14T07:25:33.525Z,1.30
2023-10-14T07:28:02.144Z,1.10
2023-10-14T07:30:29.188Z,1.42
2023-10-14T07:32:57.064Z,1.25
2023-10-14T07:35:23.989Z,1.02
2023-10-14T07:37:52.062Z,1.30
2023-10-14T07:40:28.318Z,1.27
2023-10-14T07:42:57.524Z,1.08
2023-10-14T07:45:34.522Z,1.00
2023-10-14T07:48:09.849Z,1.20
2023-10-14T07:50:43.854Z,1.17
2023-10-14T07:53:14.708Z,0.90
2023-10-14T07:55:46.046Z,1.27
2023-10-14T07:58:12.710Z,0.88
2023-10-14T08:00:40.626Z,1.58
2023-10-14T08:03:08.920Z,1.35
2023-10-14T08:05:39.017Z,1.42
2023-10-14T08:08:08.170Z,1.65
2023-10-14T08:10:35.562Z,1.33
2023-10-14T08:13:09.873Z,1.13
2023-10-14T08:15:36.895Z,1.52
2023-10-14T08:18:07.988Z,1.35
2023-10-14T08:20:35.524Z,1.02
2023-10-14T08:23:03.803Z,1.38
2023-10-14T08:25:31.662Z,1.55
2023-10-14T08:28:05.809Z,1.08
2023-10-14T08:30:46.225Z,1.10
2023-10-14T08:33:16.804Z,1.15
2023-10-14T08:35:43.799Z,0.93
2023-10-14T08:38:13.708Z,1.42
2023-10-14T08:40:43.044Z,1.25
2023-10-14T08:43:11.300Z,1.23
2023-10-14T08:45:43.091Z,1.33
2023-10-14T08:48:10.044Z,1.73
2023-10-14T08:50:37.237Z,1.52
2023-10-14T08:53:06.534Z,1.05
2023-10-14T08:55:34.908Z,1.75
2023-10-14T08:58:13.801Z,1.35
2023-10-14T09:00:44.937Z,1.50
2023-10-14T09:03:12.934Z,1.10
2023-10-14T09:05:41.358Z,1.60
2023-10-14T09:08:10.250Z,1.15
2023-10-14T09:10:38.144Z,1.08
2023-10-14T09:13:09.267Z,1.23
2023-10-14T09:15:40.373Z,1.17
2023-10-14T09:18:20.282Z,1.30
2023-10-14T09:20:55.751Z,1.90
2023-10-14T09:23:38.662Z,1.38
2023-10-14T09:26:05.672Z,1.38
2023-10-14T09:28:37.285Z,1.38
2023-10-14T09:31:08.992Z,1.52
2023-10-14T09:33:38.274Z,1.30
2023-10-14T09:36:12.635Z,1.45
2023-10-14T09:38:40.835Z,1.75
2023-10-14T09:41:09.077Z,1.27
2023-10-14T09:43:40.665Z,0.98
2023-10-14T09:46:12.578Z,1.35
2023-10-14T09:48:41.480Z,1.25
2023-10-14T09:51:08.977Z,0.95
2023-10-14T09:53:37.521Z,1.20
2023-10-14T09:56:08.739Z,1.20
2023-10-14T09:58:37.048Z,0.75
2023-10-14T10:01:08.062Z,0.93
2023-10-14T10:03:46.402Z,1.42
2023-10-14T10:06:36.756Z,1.13
2023-10-14T10:09:30.820Z,1.27
2023-10-14T10:11:59.358Z,1.25
2023-10-14T10:14:26.849Z,1.27
2023-10-14T10:16:54.746Z,1.40
2023-10-14T10:19:24.844Z,1.30
2023-10-14T10:22:14.316Z,1.25
2023-10-14T10:24:46.522Z,1.55
2023-10-14T10:27:13.958Z,1.33
2023-10-14T10:29:48.983Z,1.20
2023-10-14T10:32:22.428Z,1.17
2023-10-14T10:35:07.478Z,1.02
2023-10-14T10:37:40.713Z,1.08
2023-10-14T10:40:13.821Z,1.30
2023-10-14T10:43:11.048Z,0.75
2023-10-14T10:45:41.458Z,0.95
2023-10-14T10:48:12.039Z,1.00
2023-10-14T10:50:40.458Z,0.95
2023-10-14T10:53:06.921Z,0.95
2023-10-14T10:55:37.648Z,0.75
2023-10-14T10:58:06.188Z,0.88
2023-10-14T11:00:33.964Z,0.95
2023-10-14T11:03:02.263Z,1.33
2023-10-14T11:05:31.082Z,0.68
2023-10-14T11:07:58.328Z,1.15
2023-10-14T11:12:55.871Z,1.25
2023-10-14T11:15:23.980Z,1.08
2023-10-14T11:17:58.102Z,1.10
2023-10-14T11:20:32.946Z,1.10
2023-10-14T11:23:00.829Z,1.35
2023-10-14T11:25:31.827Z,1.30
2023-10-14T11:27:59.125Z,1.13
2023-10-14T11:30:30.277Z,1.15
2023-10-14T11:33:00.352Z,1.15
2023-10-14T11:35:31.198Z,0.90
2023-10-14T11:38:05.017Z,1.77
2023-10-14T11:40:39.605Z,1.10
2023-10-14T11:43:06.262Z,1.13
2023-10-14T11:45:33.051Z,0.98
2023-10-14T11:48:01.416Z,0.63
2023-10-14T11:50:31.444Z,0.93
2023-10-14T11:52:58.833Z,0.88
2023-10-14T11:55:27.066Z,0.93
2023-10-14T11:57:55.134Z,1.25
2023-10-14T12:00:22.711Z,0.80
2023-10-14T12:02:49.481Z,1.80
2023-10-14T12:05:17.857Z,0.80
2023-10-14T12:07:45.805Z,1.08
2023-10-14T12:10:12.445Z,1.50
2023-10-14T12:12:39.202Z,1.00
2023-10-14T12:15:09.688Z,1.80
2023-10-14T12:17:39.473Z,1.55
2023-10-14T12:20:11.484Z,1.30
2023-10-14T12:22:42.846Z,1.17
2023-10-14T12:25:10.097Z,1.02
2023-10-14T12:27:36.899Z,1.27
2023-10-14T12:30:03.967Z,1.05
2023-10-14T12:32:33.917Z,1.17
2023-10-14T12:35:00.701Z,0.80
2023-10-14T12:37:29.786Z,1.45
2023-10-14T12:40:05.777Z,1.48
2023-10-14T12:42:46.441Z,0.98
2023-10-14T12:45:23.816Z,0.98
2023-10-14T12:47:50.709Z,0.52
2023-10-14T12:50:21.118Z,1.63
2023-10-14T12:53:00.230Z,1.00
2023-10-14T12:55:27.477Z,0.93
2023-10-14T13:00:30.396Z,0.88
2023-10-14T13:03:01.130Z,0.85
2023-10-14T13:05:28.817Z,0.93
2023-10-14T13:07:57.529Z,0.73
2023-10-14T13:10:25.803Z,1.48
2023-10-14T13:12:54.336Z,0.95
2023-10-14T13:15:29.713Z,1.00
2023-10-14T13:17:57.614Z,1.20
2023-10-14T13:20:27.300Z,1.20
2023-10-14T13:22:59.567Z,1.35
2023-10-14T13:25:26.756Z,1.40
2023-10-14T13:30:23.961Z,1.02
2023-10-14T13:32:55.287Z,1.58
2023-10-14T13:35:22.029Z,0.60
2023-10-14T13:37:49.212Z,0.77
2023-10-14T13:40:37.724Z,1.20
2023-10-14T13:43:07.777Z,0.93
2023-10-14T13:45:34.910Z,0.70
2023-10-14T13:48:07.595Z,1.20
2023-10-14T13:50:40.752Z,1.63
2023-10-14T13:53:22.241Z,1.05
2023-10-14T13:55:55.470Z,0.85
2023-10-14T13:58:24.750Z,1.05
2023-10-14T14:00:51.523Z,0.95
2023-10-14T14:03:20.175Z,1.00
2023-10-14T14:05:52.567Z,1.10
2023-10-14T14:08:20.273Z,1.13
2023-10-14T14:10:46.959Z,1.00
2023-10-14T14:13:21.521Z,0.90
2023-10-14T14:15:48.837Z,0.90
2023-10-14T14:18:16.299Z,1.13
2023-10-14T14:20:42.881Z,1.30
2023-10-14T14:23:10.098Z,1.33
2023-10-14T14:25:38.164Z,1.30
2023-10-14T14:28:05.202Z,1.33
2023-10-14T14:30:32.405Z,1.23
2023-10-14T14:32:59.320Z,1.10
2023-10-14T14:35:31.396Z,0.90
2023-10-14T14:37:59.423Z,1.13
2023-10-14T14:40:28.195Z,0.88
2023-10-14T14:42:58.792Z,0.98
2023-10-14T14:45:28.641Z,1.42
2023-10-14T14:48:00.054Z,1.15
2023-10-14T14:50:30.239Z,1.20
2023-10-14T14:52:58.753Z,1.30
2023-10-14T14:55:26.498Z,0.90
2023-10-14T14:57:55.291Z,1.50
2023-10-14T15:00:29.051Z,0.77
2023-10-14T15:03:01.461Z,1.33
2023-10-14T15:05:53.257Z,1.27
2023-10-14T15:08:19.799Z,0.75
2023-10-14T15:10:46.718Z,2.00
2023-10-14T15:13:15.876Z,1.05
2023-10-14T15:15:43.313Z,0.88
2023-10-14T15:20:39.162Z,1.48
2023-10-14T15:23:08.592Z,1.10
2023-10-14T15:25:37.941Z,1.00
2023-10-14T15:28:08.692Z,1.33
2023-10-14T15:30:39.388Z,2.60
2023-10-14T15:33:11.070Z,1.92
2023-10-14T15:35:38.630Z,2.70
2023-10-14T15:38:09.180Z,1.17
2023-10-14T15:40:36.744Z,2.13
2023-10-14T15:43:06.188Z,1.33
2023-10-14T15:45:36.449Z,2.45
2023-10-14T15:48:12.714Z,1.23
2023-10-14T15:50:45.648Z,1.77
2023-10-14T15:53:13.229Z,1.10
2023-10-14T15:55:40.226Z,3.92
2023-10-14T15:58:07.273Z,2.92
2023-10-14T16:00:36.557Z,4.25
2023-10-14T16:03:11.625Z,4.03
2023-10-14T16:05:39.941Z,3.80
2023-10-14T16:08:08.108Z,3.25
2023-10-14T16:10:41.197Z,6.97
2023-10-14T16:13:08.789Z,8.85
2023-10-14T16:15:36.480Z,5.88
2023-10-14T16:20:31.446Z,6.32
2023-10-14T16:23:00.820Z,13.27
2023-10-14T16:25:27.382Z,9.23
2023-10-14T16:27:54.876Z,21.23
2023-10-14T16:30:23.048Z,14.48
2023-10-14T16:32:51.982Z,10.40
2023-10-14T16:35:20.551Z,13.18
2023-10-14T16:37:49.117Z,9.55
2023-10-14T16:40:19.541Z,5.63
2023-10-14T16:42:57.508Z,3.38
2023-10-14T16:45:23.928Z,4.80
2023-10-14T16:47:53.090Z,12.48
2023-10-14T16:50:25.663Z,5.75
2023-10-14T16:52:54.387Z,1.65
2023-10-14T16:55:22.983Z,1.40
2023-10-14T16:57:51.120Z,1.30
2023-10-14T17:00:24.014Z,1.10
2023-10-14T17:02:56.268Z,1.55
2023-10-14T17:05:24.182Z,1.27
2023-10-14T17:07:54.892Z,1.35
2023-10-14T17:10:26.895Z,1.25
2023-10-14T17:12:55.016Z,1.00
2023-10-14T17:15:25.643Z,1.45
2023-10-14T17:17:53.834Z,0.88
2023-10-14T17:20:22.102Z,0.80
2023-10-14T17:22:56.389Z,1.15
2023-10-14T17:25:27.905Z,1.42
2023-10-14T17:27:56.792Z,1.75
2023-10-14T17:30:28.317Z,1.40
2023-10-14T17:32:56.879Z,1.70
2023-10-14T17:35:24.019Z,1.30
2023-10-14T17:37:52.042Z,1.30
2023-10-14T17:40:20.187Z,1.33
2023-10-14T17:42:54.822Z,1.15
2023-10-14T17:45:27.696Z,1.38
2023-10-14T17:47:55.846Z,1.50
2023-10-14T17:50:23.249Z,1.60
2023-10-14T17:52:52.804Z,1.38
2023-10-14T17:55:20.137Z,1.80
2023-10-14T17:57:47.244Z,1.88
2023-10-14T18:00:26.348Z,1.95
2023-10-14T18:02:57.354Z,2.00
2023-10-14T18:05:25.638Z,1.60
2023-10-14T18:07:56.481Z,1.80
2023-10-14T18:10:23.270Z,1.88
2023-10-14T18:12:49.727Z,2.28
2023-10-14T18:15:17.477Z,2.00
2023-10-14T18:17:46.413Z,1.40
2023-10-14T18:20:17.601Z,1.42
2023-10-14T18:22:48.987Z,3.00
2023-10-14T18:25:17.719Z,5.32
2023-10-14T18:27:44.650Z,5.22
2023-10-14T18:30:18.213Z,2.22
2023-10-14T18:35:17.373Z,3.63
2023-10-14T18:37:45.638Z,3.00
2023-10-14T18:40:17.141Z,3.20
2023-10-14T18:42:45.574Z,3.50
2023-10-14T18:45:22.407Z,4.72
2023-10-14T18:47:53.980Z,2.78
2023-10-14T18:50:23.812Z,2.22
2023-10-14T18:52:51.925Z,2.70
2023-10-14T18:55:27.725Z,2.80
2023-10-14T18:57:56.021Z,2.35
2023-10-14T19:00:24.444Z,2.17
2023-10-14T19:02:56.997Z,2.13
2023-10-14T19:05:30.008Z,3.15
2023-10-14T19:07:57.967Z,1.90
2023-10-14T19:10:25.308Z,1.85
2023-10-14T19:12:54.630Z,2.33
2023-10-14T19:15:23.639Z,2.30
2023-10-14T19:17:50.677Z,2.90
2023-10-14T19:20:17.180Z,3.47
2023-10-14T19:23:10.850Z,2.50
2023-10-14T19:25:39.025Z,2.20
2023-10-14T19:28:10.597Z,2.10
2023-10-14T19:30:41.057Z,2.28
2023-10-14T19:33:09.320Z,2.67
2023-10-14T19:35:43.116Z,2.75
2023-10-14T19:38:11.530Z,3.08
2023-10-14T19:40:40.105Z,2.70
2023-10-14T19:43:07.151Z,2.15
2023-10-14T19:45:33.959Z,1.88
2023-10-14T19:48:00.496Z,2.05
2023-10-14T19:50:33.360Z,1.90
2023-10-14T19:52:59.807Z,2.95
2023-10-14T19:55:29.287Z,1.73
2023-10-14T19:57:58.831Z,1.85
2023-10-14T20:00:28.575Z,1.85
2023-10-14T20:03:05.292Z,1.35
2023-10-14T20:05:39.798Z,1.50
2023-10-14T20:08:13.344Z,1.50
2023-10-14T20:13:16.283Z,1.63
2023-10-14T20:15:44.447Z,2.03
2023-10-14T20:18:16.019Z,1.60
2023-10-14T20:20:44.368Z,1.80
2023-10-14T20:23:12.891Z,1.40
2023-10-14T20:25:43.862Z,1.70
2023-10-14T20:28:17.165Z,1.75
2023-10-14T20:30:48.241Z,1.58
2023-10-14T20:33:18.814Z,1.52
2023-10-14T20:35:46.212Z,1.83
2023-10-14T20:38:13.825Z,1.95
2023-10-14T20:40:44.978Z,1.45
2023-10-14T20:43:11.980Z,1.35
2023-10-14T20:45:41.310Z,1.50
2023-10-14T20:48:08.696Z,1.92
2023-10-14T20:50:38.490Z,1.50
2023-10-14T20:53:06.061Z,1.45
2023-10-14T20:58:05.244Z,2.55
2023-10-14T21:00:35.568Z,1.60
2023-10-14T21:03:10.890Z,1.80
2023-10-14T21:05:42.287Z,1.50
2023-10-14T21:08:17.324Z,1.92
2023-10-14T21:10:48.082Z,1.70
2023-10-14T21:13:18.587Z,1.55
2023-10-14T21:15:46.521Z,1.33
2023-10-14T21:18:17.737Z,1.00
2023-10-14T21:20:47.741Z,1.83
2023-10-14T21:23:19.794Z,1.17
2023-10-14T21:25:48.020Z,1.45
2023-10-14T21:28:15.132Z,1.92
2023-10-14T21:30:41.648Z,1.00
2023-10-14T21:33:08.134Z,1.38
2023-10-14T21:35:36.138Z,1.63
2023-10-14T21:38:03.636Z,1.60
2023-10-14T21:40:31.825Z,2.30
2023-10-14T21:42:59.243Z,1.15
2023-10-14T21:45:30.823Z,1.83
2023-10-14T21:47:57.420Z,1.92
2023-10-14T21:50:27.490Z,2.00
2023-10-14T21:52:54.037Z,1.67
2023-10-14T21:55:24.177Z,1.65
2023-10-14T21:57:54.956Z,1.40
2023-10-14T22:00:22.998Z,1.73
2023-10-14T22:02:51.048Z,1.00
2023-10-14T22:05:20.908Z,1.20
2023-10-14T22:07:48.894Z,1.20
2023-10-14T22:10:20.331Z,1.15
2023-10-14T22:12:59.378Z,0.90
2023-10-14T22:15:29.016Z,0.63
2023-10-14T22:17:57.015Z,0.77
2023-10-14T22:20:23.883Z,0.90
2023-10-14T22:22:51.365Z,0.70
2023-10-14T22:25:18.642Z,0.50
2023-10-14T22:27:48.456Z,0.70
2023-10-14T22:30:15.813Z,1.00
2023-10-14T22:32:48.599Z,1.05
2023-10-14T22:35:16.457Z,0.95
2023-10-14T22:37:43.671Z,0.95
2023-10-14T22:40:17.264Z,1.20
2023-10-14T22:45:12.129Z,0.90
2023-10-14T22:47:41.464Z,1.15
2023-10-14T22:50:11.734Z,0.60
2023-10-14T22:52:39.353Z,1.25
2023-10-14T22:55:10.890Z,0.70
2023-10-14T22:57:39.230Z,0.77
2023-10-14T23:00:15.895Z,0.52
2023-10-14T23:02:46.992Z,0.75
2023-10-14T23:05:23.508Z,0.70
2023-10-14T23:07:50.624Z,0.55
2023-10-14T23:10:20.534Z,0.75
2023-10-14T23:12:51.195Z,0.73
2023-10-14T23:15:18.761Z,0.60
2023-10-14T23:17:47.158Z,0.70
2023-10-14T23:20:16.910Z,0.55
2023-10-14T23:22:44.301Z,0.73
2023-10-14T23:25:14.607Z,0.52
2023-10-14T23:27:44.440Z,0.70
2023-10-14T23:30:19.951Z,0.63
2023-10-14T23:32:48.542Z,0.70
2023-10-14T23:35:24.489Z,0.70
2023-10-14T23:37:59.225Z,0.80
2023-10-14T23:40:31.272Z,0.95
2023-10-14T23:45:32.194Z,0.93
2023-10-14T23:47:59.245Z,0.85
2023-10-14T23:50:26.063Z,0.73
2023-10-14T23:52:53.310Z,0.63
2023-10-14T23:55:22.389Z,0.88
2023-10-14T23:57:49.835Z,0.70
